Time;durP1;ratioP1;P1;durP2;ratioP2;P2;SDS_P1;SDS_P2;PMS_P1;PMS_P2;Temp;Humidity;BMP_temperature;BMP_pressure;BME280_temperature;BME280_humidity;BME280_pressure;Samples;Min_cycle;Max_cycle;Signal;HPM_P1;HPM_P2
2023/01/05 00:02:05;;;;;;;30.48;4.78;;;;;;;8.42;91.98;100066.63;10476656;28;20140;-76
2023/01/05 00:07:08;;;;;;;23.98;4.40;;;;;;;8.34;90.53;100074.41;10481924;28;20148;-77
2023/01/05 00:22:54;;;;;;;18.55;2.97;;;;;;;8.46;86.63;100068.13;10483235;28;20072;-77
2023/01/05 00:27:58;;;;;;;23.27;4.95;;;;;;;8.74;85.67;100074.00;10479349;28;20045;-77
2023/01/05 00:33:01;;;;;;;22.67;4.32;;;;;;;8.51;86.35;100075.81;10487302;28;20513;-76
2023/01/05 00:38:06;;;;;;;23.02;4.25;;;;;;;8.28;85.62;100090.91;10472355;28;20064;-77
2023/01/05 00:43:11;;;;;;;27.48;3.88;;;;;;;8.54;85.29;100086.28;10478401;28;20075;-77
2023/01/05 00:48:13;;;;;;;24.63;4.47;;;;;;;8.01;88.27;100096.50;10476170;28;20057;-77
2023/01/05 00:53:17;;;;;;;12.35;2.28;;;;;;;8.10;86.80;100091.34;10484299;28;20076;-77
2023/01/05 00:58:21;;;;;;;14.48;2.47;;;;;;;8.11;85.81;100093.03;10461081;28;20474;-76
2023/01/05 01:03:24;;;;;;;12.82;2.92;;;;;;;7.84;86.82;100089.75;10462095;28;20119;-76
2023/01/05 01:08:27;;;;;;;11.60;2.47;;;;;;;7.83;85.75;100126.34;10459186;28;20049;-76
2023/01/05 01:13:31;;;;;;;16.70;3.63;;;;;;;7.79;85.53;100114.19;10482903;28;20068;-77
2023/01/05 01:18:34;;;;;;;10.70;3.47;;;;;;;7.86;84.38;100112.72;10464500;28;20095;-76
2023/01/05 01:23:37;;;;;;;20.35;3.55;;;;;;;8.04;84.61;100139.09;10470058;28;20079;-76
2023/01/05 01:28:42;;;;;;;19.75;3.28;;;;;;;7.97;84.83;100129.81;10488233;28;20106;-75
2023/01/05 01:33:45;;;;;;;18.92;4.00;;;;;;;8.46;83.68;100135.03;10470896;28;20147;-75
2023/01/05 01:38:47;;;;;;;27.98;3.90;;;;;;;8.21;83.21;100136.00;10478474;28;20041;-75
2023/01/05 01:43:53;;;;;;;28.98;4.28;;;;;;;8.38;82.85;100130.22;10483908;28;20098;-75
2023/01/05 01:49:01;;;;;;;14.77;3.85;;;;;;;8.22;81.91;100145.72;10504711;28;20128;-75
2023/01/05 01:54:08;;;;;;;15.07;2.92;;;;;;;8.40;82.02;100154.22;10465204;28;20107;-75
2023/01/05 01:59:13;;;;;;;19.25;3.83;;;;;;;8.70;80.61;100150.22;10482830;28;20049;-75
2023/01/05 02:04:16;;;;;;;22.85;4.85;;;;;;;8.77;80.27;100149.59;10474374;28;20485;-75
2023/01/05 02:09:20;;;;;;;21.00;3.85;;;;;;;8.62;80.43;100161.50;10461875;28;20041;-74
2023/01/05 02:14:33;;;;;;;20.60;3.53;;;;;;;8.32;81.01;100144.09;10469116;28;20080;-75
2023/01/05 02:20:06;;;;;;;28.67;4.60;;;;;;;8.81;80.02;100152.91;10478935;28;20132;-75
2023/01/05 02:25:31;;;;;;;26.35;5.15;;;;;;;8.31;80.41;100145.06;10427988;28;20523;-75
2023/01/05 02:31:02;;;;;;;18.25;3.97;;;;;;;8.36;80.65;100155.41;10484571;28;20067;-75
2023/01/05 02:36:19;;;;;;;25.35;3.67;;;;;;;8.69;78.72;100153.84;10463279;28;20055;-75
2023/01/05 02:41:35;;;;;;;18.55;3.90;;;;;;;8.50;79.06;100159.75;10472256;28;20068;-75
2023/01/05 02:46:40;;;;;;;19.52;3.92;;;;;;;8.52;78.89;100155.13;10463540;28;20481;-75
2023/01/05 02:51:49;;;;;;;29.08;4.80;;;;;;;8.40;78.96;100160.41;10485913;28;20152;-76
2023/01/05 02:56:57;;;;;;;22.02;3.42;;;;;;;8.53;79.74;100171.09;10482455;28;20038;-75
2023/01/05 03:02:06;;;;;;;27.95;4.47;;;;;;;8.15;80.87;100161.41;10476098;28;20037;-75
2023/01/05 03:07:13;;;;;;;22.98;3.67;;;;;;;8.57;78.82;100175.22;10460961;28;20448;-75
2023/01/05 03:17:49;;;;;;;21.30;5.38;;;;;;;8.13;83.51;100195.44;10479293;28;20057;-75
2023/01/05 03:39:15;;;;;;;23.27;5.15;;;;;;;7.87;88.59;100201.84;10470224;28;20062;-75
2023/01/05 03:44:22;;;;;;;28.27;5.15;;;;;;;7.71;88.53;100200.28;10479120;28;20403;-75
2023/01/05 03:49:26;;;;;;;21.77;4.22;;;;;;;7.90;87.19;100221.22;10481724;28;20436;-75
2023/01/05 03:54:29;;;;;;;23.88;5.53;;;;;;;7.96;87.42;100209.22;10471096;28;20051;-75
2023/01/05 03:59:32;;;;;;;32.92;4.68;;;;;;;7.97;87.06;100218.94;10480199;28;20068;-75
2023/01/05 04:04:37;;;;;;;24.17;4.60;;;;;;;7.53;89.16;100214.97;10485392;28;20051;-74
2023/01/05 04:09:43;;;;;;;31.85;5.72;;;;;;;7.89;89.23;100218.63;10491911;28;20216;-74
2023/01/05 04:14:46;;;;;;;23.35;4.40;;;;;;;7.52;89.90;100244.50;10496466;22;20049;-76
2023/01/05 04:19:51;;;;;;;28.23;6.22;;;;;;;7.57;88.92;100223.59;10471824;28;20388;-76
2023/01/05 04:24:55;;;;;;;27.55;4.15;;;;;;;7.66;88.24;100239.88;10476033;28;20391;-77
2023/01/05 04:29:58;;;;;;;19.02;4.20;;;;;;;7.96;86.55;100246.66;10476023;28;20049;-77
2023/01/05 04:35:04;;;;;;;29.90;4.88;;;;;;;7.69;88.11;100230.78;10474908;28;20036;-76
2023/01/05 04:40:14;;;;;;;19.03;4.30;;;;;;;7.54;88.25;100246.06;10475928;28;20090;-77
2023/01/05 04:45:23;;;;;;;23.27;5.50;;;;;;;7.82;87.50;100252.16;10473323;28;20038;-76
2023/01/05 04:50:28;;;;;;;22.35;4.45;;;;;;;7.57;88.02;100264.59;10474488;28;20062;-77
2023/01/05 04:55:32;;;;;;;19.13;3.75;;;;;;;7.90;86.47;100253.31;10476736;28;20048;-76
2023/01/05 05:00:36;;;;;;;25.05;5.18;;;;;;;7.89;85.58;100266.78;10474935;28;20077;-77
2023/01/05 05:05:42;;;;;;;21.23;4.50;;;;;;;8.05;84.31;100279.91;10479254;28;20041;-76
2023/01/05 05:10:47;;;;;;;35.22;7.18;;;;;;;8.05;84.54;100274.56;10475256;28;20055;-76
2023/01/05 05:15:50;;;;;;;29.00;4.88;;;;;;;7.84;86.17;100274.25;10474383;28;20037;-75
2023/01/05 05:20:55;;;;;;;30.33;5.32;;;;;;;7.77;88.02;100279.22;10476020;28;20670;-75
2023/01/05 05:26:03;;;;;;;32.03;5.38;;;;;;;7.69;88.59;100290.44;10469913;28;20040;-76
2023/01/05 05:31:06;;;;;;;27.67;4.85;;;;;;;7.40;89.17;100283.59;10480900;28;20527;-76
2023/01/05 05:36:11;;;;;;;23.35;5.13;;;;;;;7.81;88.40;100296.72;10483363;28;20040;-76
2023/01/05 05:41:14;;;;;;;28.63;4.03;;;;;;;7.52;89.62;100297.94;10472351;28;20095;-75
2023/01/05 05:46:16;;;;;;;33.72;5.88;;;;;;;7.71;89.04;100296.53;10469399;28;20118;-75
2023/01/05 05:51:21;;;;;;;38.38;6.28;;;;;;;7.78;89.42;100306.81;10483736;28;20122;-76
2023/01/05 05:56:23;;;;;;;31.65;6.00;;;;;;;7.50;89.78;100303.38;10473641;28;20379;-75
2023/01/05 06:01:26;;;;;;;26.40;4.75;;;;;;;7.52;88.67;100314.00;10475318;28;20120;-75
2023/01/05 06:06:30;;;;;;;29.52;5.28;;;;;;;7.45;88.54;100318.88;10470894;28;20037;-76
2023/01/05 06:11:33;;;;;;;25.48;4.00;;;;;;;7.71;87.72;100338.47;10473131;28;20080;-76
2023/01/05 06:16:36;;;;;;;28.60;5.25;;;;;;;7.66;89.17;100343.28;10469586;28;20082;-76
2023/01/05 06:21:40;;;;;;;22.15;5.20;;;;;;;7.51;89.34;100345.19;10469289;28;20060;-76
2023/01/05 06:26:44;;;;;;;28.27;5.45;;;;;;;7.86;89.00;100358.78;10484339;28;20079;-77
2023/01/05 06:31:47;;;;;;;33.35;5.35;;;;;;;7.93;89.41;100360.06;10477306;28;20102;-76
2023/01/05 06:36:52;;;;;;;37.10;9.07;;;;;;;7.86;89.66;100368.63;10475570;28;20048;-75
2023/01/05 06:42:02;;;;;;;22.50;4.25;;;;;;;7.63;89.54;100365.75;10470399;28;20037;-76
2023/01/05 06:47:05;;;;;;;24.85;4.82;;;;;;;7.48;90.33;100366.78;10470928;28;20124;-76
2023/01/05 06:52:09;;;;;;;23.10;5.70;;;;;;;7.91;88.18;100371.84;10472112;28;20070;-77
2023/01/05 06:57:18;;;;;;;18.08;4.13;;;;;;;7.41;89.67;100378.88;10465567;28;20082;-76
2023/01/05 07:02:20;;;;;;;29.50;5.72;;;;;;;7.34;91.92;100404.28;10490202;28;20486;-76
2023/01/05 07:07:25;;;;;;;25.73;5.47;;;;;;;7.32;94.10;100404.38;10475330;28;20045;-78
2023/01/05 07:12:28;;;;;;;27.70;5.60;;;;;;;7.53;93.08;100423.47;10480280;28;20083;-77
2023/01/05 07:17:31;;;;;;;28.50;5.70;;;;;;;7.40;94.49;100425.25;10487924;28;20052;-78
2023/01/05 07:22:35;;;;;;;23.15;4.93;;;;;;;7.39;93.28;100426.22;10486234;28;20063;-79
2023/01/05 07:27:38;;;;;;;26.33;6.57;;;;;;;7.49;93.76;100424.63;10492574;28;20053;-78
2023/01/05 07:32:41;;;;;;;27.65;6.55;;;;;;;7.54;93.30;100438.53;10483641;28;20059;-79
2023/01/05 07:37:45;;;;;;;31.23;6.20;;;;;;;7.60;92.82;100454.19;10482964;28;20084;-79
2023/01/05 07:42:50;;;;;;;26.88;5.35;;;;;;;7.33;93.66;100454.19;10495689;28;20241;-79
2023/01/05 07:47:53;;;;;;;23.30;4.72;;;;;;;7.37;93.34;100469.06;10498650;28;20041;-80
2023/01/05 07:52:58;;;;;;;15.93;4.57;;;;;;;7.68;91.82;100470.56;10500479;28;20062;-79
2023/01/05 07:58:01;;;;;;;23.52;5.05;;;;;;;7.71;92.00;100478.38;10504300;28;20049;-78
2023/01/05 08:03:04;;;;;;;16.38;3.05;;;;;;;7.65;90.47;100476.13;10503810;28;20539;-78
2023/01/05 08:08:08;;;;;;;16.73;3.78;;;;;;;7.86;91.10;100480.94;10495410;28;20148;-78
2023/01/05 08:18:32;;;;;;;24.90;4.40;;;;;;;8.05;90.09;100494.78;10450896;28;20045;-78
2023/01/05 08:23:37;;;;;;;13.65;2.60;;;;;;;7.39;91.61;100503.72;10488981;28;20052;-80
2023/01/05 08:28:40;;;;;;;15.93;3.72;;;;;;;7.61;90.75;100505.81;10499211;28;20057;-79
2023/01/05 08:33:43;;;;;;;22.58;4.30;;;;;;;7.85;89.87;100511.34;10507765;28;20036;-79
2023/01/05 08:38:50;;;;;;;31.48;5.65;;;;;;;7.52;92.04;100530.50;10477139;28;20053;-79
2023/01/05 08:43:54;;;;;;;26.42;5.25;;;;;;;7.59;92.26;100519.28;10479620;28;20053;-78
2023/01/05 08:48:59;;;;;;;25.30;5.28;;;;;;;7.61;91.42;100524.53;10485731;28;20037;-79
2023/01/05 08:54:03;;;;;;;20.75;5.25;;;;;;;7.60;90.68;100525.50;10483762;28;20038;-79
2023/01/05 08:59:07;;;;;;;24.55;5.45;;;;;;;8.03;88.98;100526.13;10526590;28;20087;-77
2023/01/05 09:04:10;;;;;;;27.20;5.20;;;;;;;8.01;88.90;100540.56;10520191;28;20057;-77
2023/01/05 09:09:14;;;;;;;26.23;4.78;;;;;;;7.78;89.59;100550.16;10494275;28;20049;-78
2023/01/05 09:14:17;;;;;;;17.10;3.70;;;;;;;7.85;87.65;100546.13;10486012;28;20131;-78
2023/01/05 09:19:20;;;;;;;31.25;5.07;;;;;;;8.30;86.11;100558.16;10479077;28;20041;-77
2023/01/05 09:24:25;;;;;;;23.77;5.80;;;;;;;7.92;88.00;100571.47;10493801;28;20044;-78
2023/01/05 09:29:27;;;;;;;26.85;5.35;;;;;;;8.22;88.58;100578.41;10486961;28;20032;-78
2023/01/05 09:34:30;;;;;;;22.60;6.32;;;;;;;7.95;89.97;100595.34;10480662;28;20091;-77
2023/01/05 09:39:34;;;;;;;33.58;5.15;;;;;;;7.77;90.11;100585.88;10476277;28;20037;-77
2023/01/05 09:44:41;;;;;;;35.47;6.75;;;;;;;8.17;88.94;100602.78;10480583;28;20068;-79
2023/01/05 09:49:45;;;;;;;20.27;3.88;;;;;;;7.83;88.46;100621.09;10484351;28;20052;-79
2023/01/05 09:54:50;;;;;;;28.08;4.75;;;;;;;8.18;87.00;100617.91;10472373;28;20068;-78
2023/01/05 09:59:57;;;;;;;18.85;5.43;;;;;;;8.35;86.46;100622.09;10457711;28;20495;-78
2023/01/05 10:05:03;;;;;;;18.55;4.40;;;;;;;8.20;87.28;100634.72;10474105;28;20115;-78
2023/01/05 10:10:21;;;;;;;22.67;5.53;;;;;;;8.29;87.55;100634.09;10495869;28;20132;-77
2023/01/05 10:15:42;;;;;;;18.98;4.63;;;;;;;8.00;88.79;100633.34;10474415;28;20052;-77
2023/01/05 10:21:06;;;;;;;19.27;5.15;;;;;;;8.13;89.52;100646.78;10490986;28;20098;-78
2023/01/05 10:26:17;;;;;;;16.20;5.47;;;;;;;7.48;92.68;100653.63;10486464;28;20401;-78
2023/01/05 10:31:23;;;;;;;31.27;8.82;;;;;;;7.91;92.07;100661.56;10490807;28;20045;-79
2023/01/05 10:36:44;;;;;;;21.98;6.28;;;;;;;7.76;92.59;100661.69;10479597;28;20063;-77
2023/01/05 10:42:16;;;;;;;27.80;6.45;;;;;;;8.10;91.06;100652.34;10488671;28;20048;-80
2023/01/05 10:47:21;;;;;;;31.17;6.20;;;;;;;8.14;91.26;100673.41;10511159;28;20085;-76
2023/01/05 10:52:24;;;;;;;30.33;7.90;;;;;;;8.45;89.45;100675.84;10500129;28;20053;-78
2023/01/05 10:57:34;;;;;;;20.73;4.32;;;;;;;8.20;89.22;100656.13;10488291;28;20047;-77
2023/01/05 11:02:41;;;;;;;33.40;6.77;;;;;;;8.43;87.07;100675.97;10482472;28;20032;-79
2023/01/05 11:07:47;;;;;;;18.35;4.72;;;;;;;8.31;87.11;100679.47;10484181;28;20041;-79
2023/01/05 11:13:03;;;;;;;14.35;4.18;;;;;;;8.20;85.60;100684.69;10483034;28;20053;-78
2023/01/05 11:18:07;;;;;;;16.02;4.55;;;;;;;8.68;83.95;100687.75;10476409;28;20494;-78
2023/01/05 11:23:34;;;;;;;24.33;4.50;;;;;;;8.73;83.11;100689.13;10439048;28;20554;-79
2023/01/05 11:28:38;;;;;;;17.48;3.92;;;;;;;8.98;82.75;100674.91;10442476;28;20501;-78
2023/01/05 11:33:41;;;;;;;14.15;4.63;;;;;;;8.68;82.76;100688.59;10444344;28;20489;-79
2023/01/05 11:38:44;;;;;;;23.80;5.53;;;;;;;9.23;81.71;100695.47;10455993;28;20054;-78
2023/01/05 11:43:50;;;;;;;18.85;4.10;;;;;;;9.05;81.89;100700.31;10445721;28;20053;-80
2023/01/05 11:48:55;;;;;;;17.75;4.13;;;;;;;8.78;82.24;100700.41;10451855;28;20167;-81
2023/01/05 11:53:58;;;;;;;24.73;5.38;;;;;;;9.22;80.92;100696.44;10439814;28;20053;-78
2023/01/05 11:59:02;;;;;;;17.33;4.35;;;;;;;8.80;81.21;100694.91;10446067;28;20040;-79
2023/01/05 12:04:15;;;;;;;13.90;3.58;;;;;;;9.11;79.92;100698.19;10450885;28;20058;-79
2023/01/05 12:09:26;;;;;;;15.23;3.50;;;;;;;9.08;80.34;100703.72;10424815;28;20450;-79
2023/01/05 12:14:53;;;;;;;14.65;4.40;;;;;;;8.92;80.15;100709.31;10484502;28;20048;-79
2023/01/05 12:20:08;;;;;;;16.75;4.43;;;;;;;9.05;79.73;100702.09;10456190;28;20060;-78
2023/01/05 12:25:20;;;;;;;16.73;3.88;;;;;;;9.57;79.42;100710.97;10445548;28;20101;-79
2023/01/05 12:30:34;;;;;;;16.20;3.80;;;;;;;9.23;80.14;100711.56;10455920;28;20174;-79
2023/01/05 12:36:21;;;;;;;16.35;4.38;;;;;;;9.50;79.37;100719.47;10478149;28;20064;-78
2023/01/05 12:41:38;;;;;;;20.38;4.50;;;;;;;9.23;80.85;100722.28;10451743;28;20049;-79
2023/01/05 12:46:59;;;;;;;18.25;4.68;;;;;;;8.94;80.62;100729.69;10461766;28;20103;-79
2023/01/05 12:52:09;;;;;;;20.08;3.95;;;;;;;8.78;82.08;100727.19;10462504;28;20050;-78
2023/01/05 12:57:16;;;;;;;21.65;5.47;;;;;;;8.89;82.21;100736.31;10457620;28;20066;-79
2023/01/05 13:02:29;;;;;;;18.90;5.65;;;;;;;8.99;82.57;100737.38;10438880;28;20059;-78
2023/01/05 13:07:33;;;;;;;;;;;;;;;8.73;83.51;100737.34;10448119;28;20075;-79
2023/01/05 13:12:38;;;;;;;21.15;5.80;;;;;;;8.72;83.85;100735.66;10444555;28;19931;-79
2023/01/05 13:17:47;;;;;;;18.83;5.50;;;;;;;8.45;84.75;100740.09;10451652;28;20044;-78
2023/01/05 13:22:54;;;;;;;24.30;4.40;;;;;;;7.99;87.07;100751.19;10466279;28;20055;-79
2023/01/05 13:27:57;;;;;;;16.08;4.28;;;;;;;8.23;87.57;100754.94;10451902;28;20051;-79
2023/01/05 13:33:27;;;;;;;23.90;5.45;;;;;;;8.52;87.01;100755.72;10441138;28;20515;-79
2023/01/05 13:39:10;;;;;;;21.10;5.90;;;;;;;8.64;87.85;100763.88;10434873;28;20047;-80
2023/01/05 13:44:40;;;;;;;24.58;6.30;;;;;;;8.29;89.93;100777.75;10435976;28;21183;-82
2023/01/05 13:50:26;;;;;;;27.70;7.15;;;;;;;8.19;90.94;100772.13;10452927;28;20214;-80
2023/01/05 13:55:32;;;;;;;27.50;5.95;;;;;;;8.26;90.10;100780.66;10439433;28;20084;-81
2023/01/05 14:00:41;;;;;;;23.77;6.03;;;;;;;8.42;88.54;100789.41;10411131;28;20091;-81
2023/01/05 14:05:50;;;;;;;25.67;6.05;;;;;;;7.99;90.79;100799.34;10423381;28;20064;-81
2023/01/05 14:11:14;;;;;;;27.42;6.28;;;;;;;8.16;88.57;100807.13;10450023;28;21251;-81
2023/01/05 14:16:51;;;;;;;18.08;6.50;;;;;;;8.52;85.77;100793.19;10453881;28;20052;-79
2023/01/05 14:22:35;;;;;;;16.08;4.72;;;;;;;8.34;85.26;100797.06;10438790;28;20049;-80
2023/01/05 14:28:17;;;;;;;20.55;6.15;;;;;;;8.49;84.62;100809.47;10409500;28;20044;-80
2023/01/05 14:33:20;;;;;;;17.95;6.63;;;;;;;8.30;84.55;100811.59;10429488;28;20044;-81
2023/01/05 14:38:25;;;;;;;19.02;6.10;;;;;;;8.58;83.65;100819.59;10437830;28;20057;-81
2023/01/05 14:43:31;;;;;;;28.20;6.40;;;;;;;8.42;84.05;100818.84;10445152;28;20067;-80
2023/01/05 14:48:42;;;;;;;27.40;6.03;;;;;;;8.23;85.04;100823.63;10435057;28;20179;-79
2023/01/05 14:53:49;;;;;;;20.65;5.60;;;;;;;8.38;84.06;100826.19;10427257;28;20137;-80
2023/01/05 14:59:05;;;;;;;34.20;7.55;;;;;;;8.55;83.21;100840.34;10448003;28;20063;-80
2023/01/05 15:04:13;;;;;;;21.92;5.63;;;;;;;8.35;82.86;100845.13;10454010;28;20112;-78
2023/01/05 15:09:37;;;;;;;27.90;6.32;;;;;;;8.69;83.09;100842.09;10442636;28;20426;-78
2023/01/05 15:15:05;;;;;;;24.98;6.25;;;;;;;8.72;82.69;100849.94;10441360;28;20057;-80
2023/01/05 15:20:53;;;;;;;16.35;5.03;;;;;;;8.51;82.82;100844.19;10427645;28;20483;-79
2023/01/05 15:26:21;;;;;;;19.17;5.00;;;;;;;8.29;83.49;100836.66;10398052;28;20053;-80
2023/01/05 15:31:36;;;;;;;25.38;5.25;;;;;;;8.52;82.54;100838.72;10432428;28;20132;-79
2023/01/05 15:36:46;;;;;;;27.02;6.57;;;;;;;8.46;82.30;100840.94;10428257;28;20053;-80
2023/01/05 15:41:51;;;;;;;33.35;6.75;;;;;;;8.46;82.52;100833.75;10425640;28;20076;-79
2023/01/05 15:46:55;;;;;;;24.98;5.65;;;;;;;8.44;82.09;100850.84;10446410;28;20179;-79
2023/01/05 15:51:58;;;;;;;19.67;4.75;;;;;;;8.12;82.81;100843.94;10445801;28;20044;-79
2023/01/05 15:57:02;;;;;;;30.13;6.13;;;;;;;8.23;82.28;100859.31;10444472;28;20068;-79
2023/01/05 16:02:16;;;;;;;28.05;5.40;;;;;;;8.25;82.83;100853.84;10427479;28;20049;-79
2023/01/05 16:07:19;;;;;;;27.40;5.47;;;;;;;8.49;81.98;100857.66;10448972;28;20084;-77
2023/01/05 16:12:25;;;;;;;28.33;7.00;;;;;;;8.23;82.87;100855.75;10438721;28;21218;-79
2023/01/05 16:17:29;;;;;;;31.10;6.35;;;;;;;8.39;81.92;100862.72;10446322;28;20165;-79
2023/01/05 16:22:41;;;;;;;35.75;7.07;;;;;;;8.82;80.45;100859.09;10450453;28;20691;-79
2023/01/05 16:27:49;;;;;;;27.53;5.60;;;;;;;8.44;80.99;100858.88;10442040;28;20060;-79
2023/01/05 16:32:56;;;;;;;23.48;5.22;;;;;;;8.39;81.11;100875.22;10448440;28;20277;-79
2023/01/05 16:38:13;;;;;;;30.33;6.90;;;;;;;8.70;80.81;100867.94;10448840;28;20052;-78
2023/01/05 16:43:22;;;;;;;26.48;5.65;;;;;;;8.59;80.63;100876.69;10440554;28;20432;-79
2023/01/05 16:48:48;;;;;;;27.52;6.63;;;;;;;8.54;80.47;100874.28;10436028;28;20094;-78
2023/01/05 16:53:58;;;;;;;28.33;6.80;;;;;;;8.72;79.59;100872.25;10440236;28;20056;-78
2023/01/05 16:59:04;;;;;;;25.33;6.28;;;;;;;8.78;79.43;100879.03;10447883;28;20049;-77
2023/01/05 17:04:11;;;;;;;25.25;5.65;;;;;;;8.67;79.26;100878.88;10443314;28;20072;-78
2023/01/05 17:09:19;;;;;;;27.52;5.30;;;;;;;8.70;79.16;100882.19;10442390;28;20045;-78
2023/01/05 17:14:26;;;;;;;25.05;5.80;;;;;;;8.72;79.50;100887.44;10440518;28;20037;-78
2023/01/05 17:19:28;;;;;;;20.65;6.68;;;;;;;8.49;80.66;100894.28;10443624;28;20044;-78
2023/01/05 17:24:32;;;;;;;28.08;5.82;;;;;;;8.49;79.75;100899.66;10440383;28;20094;-78
2023/01/05 17:29:37;;;;;;;22.05;6.05;;;;;;;8.59;79.67;100898.09;10441330;28;20052;-79
2023/01/05 17:34:41;;;;;;;23.52;5.97;;;;;;;8.40;80.43;100895.72;10446680;28;20040;-78
2023/01/05 17:39:44;;;;;;;22.90;6.38;;;;;;;8.46;80.32;100892.66;10432085;28;20052;-78
2023/01/05 17:44:48;;;;;;;28.30;6.72;;;;;;;8.51;79.55;100884.34;10466430;28;20278;-78
2023/01/05 17:49:51;;;;;;;25.17;7.15;;;;;;;8.31;80.29;100880.22;10446432;28;20057;-78
2023/01/05 17:54:54;;;;;;;34.85;6.88;;;;;;;8.16;80.90;100882.91;10448087;28;20049;-78
2023/01/05 17:59:58;;;;;;;28.80;7.72;;;;;;;8.16;81.04;100885.59;10445577;28;20049;-77
2023/01/05 18:05:00;;;;;;;37.10;7.75;;;;;;;8.17;80.76;100878.41;10446118;28;20059;-77
2023/01/05 18:10:05;;;;;;;20.42;6.32;;;;;;;8.40;79.89;100874.28;10448383;28;20065;-78
2023/01/05 18:15:15;;;;;;;33.28;7.57;;;;;;;8.33;80.33;100870.28;10466331;28;20125;-77
2023/01/05 18:20:19;;;;;;;30.45;8.32;;;;;;;8.48;80.06;100873.84;10477089;28;20056;-78
2023/01/05 18:25:23;;;;;;;27.20;8.73;;;;;;;8.51;79.78;100873.63;10446905;28;20079;-77
2023/01/05 18:30:28;;;;;;;30.25;8.80;;;;;;;8.55;79.51;100875.13;10446630;28;20072;-78
2023/01/05 18:35:31;;;;;;;35.83;8.68;;;;;;;8.32;79.64;100871.25;10443268;28;20127;-78
2023/01/05 18:40:33;;;;;;;22.55;7.65;;;;;;;8.49;79.51;100870.19;10441964;28;20052;-77
2023/01/05 18:45:38;;;;;;;30.25;9.75;;;;;;;8.56;79.58;100869.69;10443345;28;20060;-78
2023/01/05 18:50:48;;;;;;;32.38;9.20;;;;;;;8.43;79.47;100866.06;10431122;28;20065;-77
2023/01/05 18:55:51;;;;;;;42.60;10.30;;;;;;;8.54;79.28;100868.06;10438621;28;20048;-77
2023/01/05 19:00:56;;;;;;;35.38;10.02;;;;;;;8.58;79.31;100865.13;10437951;28;20044;-77
2023/01/05 19:05:58;;;;;;;33.38;10.00;;;;;;;8.40;79.21;100866.25;10438036;28;20056;-78
2023/01/05 19:11:10;;;;;;;34.42;9.18;;;;;;;8.37;79.11;100874.50;10434369;28;20142;-78
2023/01/05 19:16:15;;;;;;;35.85;10.35;;;;;;;8.57;78.39;100875.91;10434219;28;20466;-77
2023/01/05 19:21:18;;;;;;;28.80;9.95;;;;;;;8.63;78.11;100859.44;10435264;28;20041;-77
2023/01/05 19:26:22;;;;;;;31.17;10.57;;;;;;;8.59;78.35;100864.16;10436566;28;20045;-77
2023/01/05 19:31:27;;;;;;;48.35;11.23;;;;;;;8.63;78.25;100864.78;10434251;28;20049;-77
2023/01/05 19:36:33;;;;;;;39.53;11.60;;;;;;;8.48;78.83;100863.13;10434610;28;20048;-77
2023/01/05 19:41:38;;;;;;;33.30;13.45;;;;;;;8.50;79.90;100862.06;10435779;28;20635;-77
2023/01/05 19:46:43;;;;;;;45.75;12.80;;;;;;;8.53;80.89;100851.16;10435972;28;20041;-77
2023/01/05 19:51:46;;;;;;;40.00;13.35;;;;;;;8.48;82.07;100855.94;10433095;28;20049;-77
2023/01/05 19:56:49;;;;;;;38.22;12.70;;;;;;;8.30;82.92;100849.91;10432983;28;20040;-78
2023/01/05 20:01:54;;;;;;;39.22;11.23;;;;;;;8.08;83.08;100853.09;10441390;28;20179;-77
2023/01/05 20:06:59;;;;;;;45.70;13.57;;;;;;;8.19;84.37;100844.41;10434933;28;20656;-76
2023/01/05 20:12:04;;;;;;;44.25;11.63;;;;;;;8.23;83.25;100848.59;10420334;28;20053;-78
2023/01/05 20:17:18;;;;;;;32.35;13.00;;;;;;;8.40;83.15;100844.84;10425817;28;20528;-77
2023/01/05 20:22:21;;;;;;;42.58;14.90;;;;;;;8.44;83.23;100843.66;10418871;28;20418;-77
2023/01/05 20:27:24;;;;;;;49.53;14.20;;;;;;;8.39;83.65;100840.44;10415173;28;20049;-77
2023/01/05 20:32:28;;;;;;;34.13;12.45;;;;;;;8.36;83.98;100825.44;10420372;28;20421;-77
2023/01/05 20:37:32;;;;;;;41.05;13.45;;;;;;;8.51;83.70;100818.25;10421756;28;20579;-76
2023/01/05 20:42:36;;;;;;;44.03;14.30;;;;;;;8.47;83.56;100818.56;10420752;28;20055;-78
2023/01/05 20:47:40;;;;;;;41.95;12.68;;;;;;;8.48;83.96;100821.16;10423397;28;20051;-78
2023/01/05 20:52:49;;;;;;;38.90;11.15;;;;;;;8.24;84.22;100818.19;10428053;28;20056;-78
2023/01/05 20:57:52;;;;;;;31.17;10.40;;;;;;;8.15;85.00;100830.34;10424764;28;20052;-77
2023/01/05 21:02:56;;;;;;;47.58;12.07;;;;;;;8.24;85.54;100828.06;10436206;28;21149;-78
2023/01/05 21:07:59;;;;;;;28.85;10.25;;;;;;;8.03;86.78;100827.59;10434726;28;20106;-77
2023/01/05 21:13:02;;;;;;;40.83;11.85;;;;;;;8.08;87.22;100829.03;10434859;28;20099;-78
2023/01/05 21:18:27;;;;;;;38.58;12.23;;;;;;;8.13;87.20;100826.91;10438854;28;20052;-78
2023/01/05 21:23:30;;;;;;;38.00;11.80;;;;;;;8.16;87.42;100818.69;10446421;28;20047;-78
2023/01/05 21:28:32;;;;;;;41.05;12.25;;;;;;;8.15;87.74;100818.81;10446056;28;20045;-79
2023/01/05 21:33:39;;;;;;;38.45;12.88;;;;;;;8.22;87.67;100814.75;10449548;28;20037;-79
2023/01/05 21:38:42;;;;;;;33.78;13.05;;;;;;;8.16;87.76;100809.81;10451191;28;20059;-78
2023/01/05 21:44:06;;;;;;;27.60;10.73;;;;;;;8.13;88.12;100794.81;10449787;28;20050;-79
2023/01/05 21:49:11;;;;;;;33.22;10.57;;;;;;;8.16;88.19;100797.28;10449174;28;20040;-79
2023/01/05 21:59:35;;;;;;;30.70;11.38;;;;;;;8.08;88.79;100796.91;10457163;28;20061;-77
2023/01/05 22:04:39;;;;;;;35.13;13.07;;;;;;;8.25;88.33;100782.44;10472111;22;20048;-78
2023/01/05 22:09:42;;;;;;;36.00;13.05;;;;;;;8.23;88.51;100771.00;10448750;28;20033;-77
2023/01/05 22:14:45;;;;;;;36.35;11.95;;;;;;;8.25;88.77;100776.22;10430642;28;20049;-77
2023/01/05 22:19:52;;;;;;;43.53;13.75;;;;;;;8.33;88.54;100768.56;10422667;28;20133;-78
2023/01/05 22:24:54;;;;;;;34.38;13.02;;;;;;;8.36;88.59;100765.69;10430691;28;20133;-78
2023/01/05 22:29:57;;;;;;;30.35;13.27;;;;;;;8.35;88.81;100755.94;10424256;28;20045;-77
2023/01/05 22:35:02;;;;;;;31.65;13.63;;;;;;;8.37;88.64;100757.56;10430419;28;20490;-77
2023/01/05 22:40:05;;;;;;;30.45;13.20;;;;;;;8.46;88.66;100756.13;10429280;28;20045;-78
2023/01/05 22:45:09;;;;;;;33.13;15.27;;;;;;;8.52;88.56;100752.19;10439890;28;20077;-78
2023/01/05 22:50:13;;;;;;;34.92;15.70;;;;;;;8.51;88.46;100754.00;10441204;28;20061;-77
2023/01/05 22:55:16;;;;;;;35.30;15.38;;;;;;;8.31;89.17;100759.75;10441760;28;20068;-78
2023/01/05 23:00:19;;;;;;;31.92;15.18;;;;;;;8.47;88.74;100754.28;10440037;28;20498;-78
2023/01/05 23:05:23;;;;;;;27.00;15.25;;;;;;;8.42;88.97;100751.91;10441652;28;20506;-78
2023/01/05 23:10:27;;;;;;;37.30;15.77;;;;;;;8.34;89.48;100747.06;10437158;28;20044;-78
2023/01/05 23:15:30;;;;;;;22.92;11.68;;;;;;;8.27;90.16;100743.06;10440447;28;20036;-77
2023/01/05 23:20:34;;;;;;;22.52;12.88;;;;;;;8.49;89.74;100742.53;10439980;28;20040;-77
2023/01/05 23:25:36;;;;;;;20.80;11.73;;;;;;;8.56;89.65;100719.75;10436863;28;20040;-78
2023/01/05 23:30:39;;;;;;;17.58;8.65;;;;;;;8.25;91.14;100736.09;10440492;28;20470;-78
2023/01/05 23:35:44;;;;;;;19.95;11.38;;;;;;;8.35;91.56;100734.53;10440269;28;20041;-78
2023/01/05 23:40:49;;;;;;;27.10;14.88;;;;;;;8.57;90.79;100725.94;10436465;28;20044;-78
2023/01/05 23:45:58;;;;;;;22.08;12.60;;;;;;;8.43;92.21;100726.00;10440950;28;20069;-78
2023/01/05 23:51:04;;;;;;;21.88;13.73;;;;;;;8.43;91.91;100717.97;10439932;28;20483;-78
2023/01/05 23:56:10;;;;;;;18.38;13.07;;;;;;;8.60;91.66;100713.22;10440698;28;20409;-77
